Tinogasta, Argentina
Current Conditions -  °F | °C
As of 2:00 AM on Thursday 23 Oct 2014 (Local Time) from SANT Reporting Station
Clear Clear  
Wind Chill: 26°   Ceiling: Unl
Heat Index: 27°   Visibility: 6mi
Dew Point: 16°   Wind: 7mph
Humidity: 54%   Direction: 320°NW
Pressure: 29.94"   Gusts: NA
Location:  28.07°S, 67.56°W
Report Text: SANT 230500Z 32006KT CAVOK 26/16 Q1014
Loading
Personal Weather Stations






























Interactive Weather Map
Tropical Storm Tracking
New forecast layout! Learn more

10-Day Weather Forecast

Advertisements
Track Severe Weather on mobile